Current Conditions

Updated: 13-Dec-2018 01:26 AM  
Summary / Temperature Wind Rain






Feels like: 37°F

1-hour difference
1.9°F 1.9°F colder than last hour.

24-hour difference
12.6°F12.6°F colder than yesterday at this time.

  Today Yesterday
High: 39.1°F
12:23 AM
55.1°F
1:11 PM
Low: 37.2°F
1:24 AM
38.8°F
11:54 PM
Calm NNW
0.0
Gust:  0.0 mph
0 Beaufort - Calm

Today: 3.5 - 4:33 AM
Month: 12.0 mph - Dec 4
Rain Today: 0.00 in
Current Rate (/hr): 0.000 in
Max Rate (/hr):
Rain Yesterday: 0.00 in
Storm Rain: 0.00 in
This Month: 0.28 in
Season Total: 2.02 in
Last Rain Event: 5 days ago
Humidity / Barometer Sun / Moon
Humidity: 94 Decreased 1.0% in the last hour.
Dew Point: 35.6°F Decreased 2.2°F in the last hour.
Barometer: 30.337 inHg  
Baro Trend: Steady
Sunrise: 6:59 AM
Sunset: 4:42 PM
Moonrise: 11:34 AM
Moonset: 9:39 PM
Sky Conditions UV Index
Summary: Mist, Clear
Visibility: 5 miles
Clouds: None
KVIS - 12:56 AM PST
Current: 0.0  None 
Thursday: 2.0  Low 
Friday: 2.0  Low 
Air Quality Fire Danger
 Moderate 
Ozone 4 ppb
PM 2.5 15 μg/m3
1:20 AM PST
Current: 0  Low 

Local Alerts Local Forecast
Local NWS Alerts
Today

Mostly
Sunny
High 61
Tonight

Partly
Cloudy
Low 42
Fri

Mostly
Cloudy
High 62
Fri night

Mostly
Clear
Low 41
Sat

Partly
Cloudy
High 61
Sat night

Partly
Cloudy
Low 42
Sun

Rain
Showers
High 64

Local Radar Local Satellite Neighborhood Cam Sky Cam
Local Radar Local Satellite Neighborhood Cam Sky Cam


Nearby Airport Stations

KVIS - Visalia, California, USA
Distance from station: W 14mi, 23km
Updated: Thu, 13-Dec-2018 12:56am PST
Mist, Clear
Mist, Clear
 Wind from SE
Wind: SE 3 mph , 6 km/h
Temperature: 39°F , 4°C
Dew Point: 37°F , 3°C
Humidity: 93%
Barometer: 30.34 inHg , 1027.4 hPa
Summary: Mist
Clouds: Clear
Visibility: 5 miles , 8 km
2018/12/13 08:56 KVIS 130856Z AUTO 13003KT 5SM BR CLR 04/03 A3034 RMK AO2 SLP283 T00440033 58005
KPTV - Porterville, California, USA
Distance from station: SSE 19mi, 31km
Updated: Thu, 13-Dec-2018 12:56am PST
Mist, Clear
Mist, Clear
 Wind from ESE
Wind: ESE 6 mph , 9 km/h
Temperature: 39°F , 4°C
Wind Chill: 35°F , 2°C
Dew Point: 37°F , 3°C
Humidity: 93%
Barometer: 30.34 inHg , 1027.4 hPa
Summary: Mist
Clouds: Clear
Visibility: 6 miles , 10 km
2018/12/13 08:56 KPTV 130856Z AUTO 12005KT 6SM BR CLR 04/03 A3034 RMK AO2 SLP288 T00390033 58007

Metar display script from Saratoga-Weather.org



Visitor Map